createdAt,value
2023-04-19T00:01:35.547Z,71.07
2023-04-19T00:04:03.567Z,71.89
2023-04-19T00:06:31.879Z,72.74
2023-04-19T00:08:59.653Z,73.16
2023-04-19T00:11:27.423Z,71.50
2023-04-19T00:13:55.187Z,71.38
2023-04-19T00:16:24.290Z,70.84
2023-04-19T00:18:52.035Z,71.22
2023-04-19T00:21:19.774Z,71.27
2023-04-19T00:23:47.942Z,70.59
2023-04-19T00:26:16.567Z,70.35
2023-04-19T00:28:44.282Z,70.09
2023-04-19T00:31:12.308Z,70.07
2023-04-19T00:33:56.360Z,70.65
2023-04-19T00:36:24.669Z,70.89
2023-04-19T00:38:52.346Z,70.51
2023-04-19T00:41:20.068Z,70.52
2023-04-19T00:43:47.901Z,71.50
2023-04-19T00:46:16.239Z,70.66
2023-04-19T00:48:44.057Z,69.98
2023-04-19T00:51:13.989Z,71.05
2023-04-19T00:53:42.325Z,70.81
2023-04-19T00:56:11.840Z,70.67
2023-04-19T00:58:40.262Z,70.24
2023-04-19T01:01:07.901Z,69.60
2023-04-19T01:03:36.701Z,70.51
2023-04-19T01:06:04.823Z,72.02
2023-04-19T01:08:33.816Z,70.08
2023-04-19T01:11:01.457Z,69.98
2023-04-19T01:13:29.206Z,70.28
2023-04-19T01:15:58.853Z,70.81
2023-04-19T01:18:29.342Z,70.93
2023-04-19T01:20:57.034Z,70.07
2023-04-19T01:23:26.096Z,71.21
2023-04-19T01:25:53.775Z,70.15
2023-04-19T01:28:21.506Z,70.89
2023-04-19T01:30:50.986Z,70.58
2023-04-19T01:33:18.633Z,70.79
2023-04-19T01:35:46.291Z,71.39
2023-04-19T01:38:13.979Z,71.79
2023-04-19T01:40:43.151Z,71.22
2023-04-19T01:43:13.659Z,71.84
2023-04-19T01:45:41.294Z,71.02
2023-04-19T01:48:09.094Z,71.25
2023-04-19T01:50:36.799Z,71.17
2023-04-19T01:53:04.416Z,70.68
2023-04-19T01:55:32.645Z,70.74
2023-04-19T01:58:01.734Z,71.88
2023-04-19T02:00:29.654Z,71.30
2023-04-19T02:02:57.557Z,70.92
2023-04-19T02:05:25.292Z,71.60
2023-04-19T02:07:52.987Z,71.04
2023-04-19T02:10:20.784Z,71.58
2023-04-19T02:12:48.600Z,70.97
2023-04-19T02:15:17.577Z,72.09
2023-04-19T02:17:46.592Z,72.30
2023-04-19T02:20:14.343Z,71.50
2023-04-19T02:22:43.734Z,72.41
2023-04-19T02:25:11.436Z,72.55
2023-04-19T02:27:39.119Z,72.49
2023-04-19T02:30:08.188Z,72.20
2023-04-19T02:32:37.249Z,73.00
2023-04-19T02:35:05.442Z,72.97
2023-04-19T02:37:33.133Z,72.20
2023-04-19T02:40:00.792Z,72.13
2023-04-19T02:42:28.425Z,71.95
2023-04-19T02:44:56.040Z,73.57
2023-04-19T02:47:23.815Z,74.74
2023-04-19T02:49:52.930Z,72.97
2023-04-19T02:52:20.704Z,72.20
2023-04-19T02:54:48.322Z,72.42
2023-04-19T02:57:15.974Z,72.50
2023-04-19T02:59:43.611Z,72.59
2023-04-19T03:02:11.282Z,72.10
2023-04-19T03:04:38.892Z,71.98
2023-04-19T03:07:09.873Z,73.15
2023-04-19T03:09:37.475Z,72.16
2023-04-19T03:12:05.507Z,72.53
2023-04-19T03:14:33.877Z,71.59
2023-04-19T03:17:01.540Z,71.43
2023-04-19T03:19:29.184Z,73.22
2023-04-19T03:21:56.902Z,73.14
2023-04-19T03:24:30.555Z,72.88
2023-04-19T03:26:58.176Z,73.26
2023-04-19T03:29:26.196Z,72.81
2023-04-19T03:31:53.852Z,73.53
2023-04-19T03:34:21.458Z,74.06
2023-04-19T03:36:49.075Z,74.07
2023-04-19T03:39:16.677Z,75.22
2023-04-19T03:41:45.663Z,74.03
2023-04-19T03:44:13.760Z,73.19
2023-04-19T03:46:41.781Z,73.06
2023-04-19T03:49:09.477Z,72.92
2023-04-19T03:51:37.327Z,72.93
2023-04-19T03:54:05.242Z,73.25
2023-04-19T03:56:32.981Z,72.90
2023-04-19T03:59:02.217Z,73.70
2023-04-19T04:01:29.892Z,74.81
2023-04-19T04:03:57.803Z,74.06
2023-04-19T04:06:26.752Z,73.88
2023-04-19T04:08:54.499Z,73.38
2023-04-19T04:11:22.190Z,73.59
2023-04-19T04:13:50.387Z,74.00
2023-04-19T04:16:19.390Z,74.63
2023-04-19T04:18:47.154Z,73.87
2023-04-19T04:21:14.905Z,74.11
2023-04-19T04:23:42.810Z,75.47
2023-04-19T04:26:11.036Z,73.88
2023-04-19T04:28:38.734Z,74.83
2023-04-19T04:31:06.527Z,75.14
2023-04-19T04:33:35.928Z,75.72
2023-04-19T04:36:03.718Z,76.16
2023-04-19T04:38:32.268Z,76.14
2023-04-19T04:40:59.891Z,75.45
2023-04-19T04:43:29.201Z,76.53
2023-04-19T04:45:57.935Z,76.56
2023-04-19T04:48:26.252Z,77.28
2023-04-19T04:50:55.315Z,78.35
2023-04-19T04:53:23.301Z,77.73
2023-04-19T04:55:51.469Z,77.47
2023-04-19T04:58:20.470Z,76.92
2023-04-19T05:00:49.089Z,77.10
2023-04-19T05:03:16.968Z,79.09
2023-04-19T05:05:45.310Z,78.04
2023-04-19T05:08:14.531Z,78.91
2023-04-19T05:10:42.295Z,78.09
2023-04-19T05:13:35.057Z,78.01
2023-04-19T05:16:02.943Z,77.83
2023-04-19T05:18:30.669Z,77.79
2023-04-19T05:20:58.533Z,77.53
2023-04-19T05:23:27.539Z,77.76
2023-04-19T05:25:55.162Z,77.92
2023-04-19T05:28:22.820Z,77.31
2023-04-19T05:30:50.448Z,76.22
2023-04-19T05:33:18.160Z,77.74
2023-04-19T05:35:46.051Z,76.84
2023-04-19T05:38:13.970Z,77.63
2023-04-19T05:40:43.009Z,77.31
2023-04-19T05:43:11.579Z,77.74
2023-04-19T05:45:39.351Z,77.67
2023-04-19T05:48:07.797Z,76.44
2023-04-19T05:50:36.389Z,76.83
2023-04-19T05:53:04.302Z,76.16
2023-04-19T05:55:32.127Z,76.84
2023-04-19T05:58:01.214Z,76.21
2023-04-19T06:00:29.261Z,76.12
2023-04-19T06:02:57.541Z,76.40
2023-04-19T06:05:25.724Z,75.22
2023-04-19T06:10:31.319Z,76.55
2023-04-19T06:13:06.506Z,77.01
2023-04-19T06:15:34.795Z,76.31
2023-04-19T06:18:02.609Z,76.54
2023-04-19T06:20:32.439Z,75.55
2023-04-19T06:23:00.219Z,75.99
2023-04-19T06:25:28.088Z,74.12
2023-04-19T06:27:55.773Z,74.74
2023-04-19T06:30:25.175Z,74.62
2023-04-19T06:32:52.920Z,75.57
2023-04-19T06:35:21.153Z,74.43
2023-04-19T06:37:49.756Z,74.43
2023-04-19T06:40:19.382Z,73.43
2023-04-19T06:42:47.022Z,75.59
2023-04-19T06:45:16.107Z,74.50
2023-04-19T06:47:45.202Z,74.43
2023-04-19T06:50:13.270Z,74.46
2023-04-19T06:52:41.034Z,73.65
2023-04-19T06:55:09.278Z,74.31
2023-04-19T06:57:36.937Z,74.17
2023-04-19T07:00:06.449Z,74.38
2023-04-19T07:02:34.305Z,73.82
2023-04-19T07:05:03.830Z,73.74
2023-04-19T07:07:31.618Z,73.05
2023-04-19T07:09:59.402Z,72.49
2023-04-19T07:12:27.275Z,71.58
2023-04-19T07:14:57.268Z,70.62
2023-04-19T07:17:25.313Z,70.86
2023-04-19T07:19:53.077Z,71.33
2023-04-19T07:22:22.257Z,72.36
2023-04-19T07:24:52.122Z,71.03
2023-04-19T07:27:19.839Z,72.40
2023-04-19T07:29:47.589Z,72.33
2023-04-19T07:32:15.413Z,73.91
2023-04-19T07:34:43.639Z,72.74
2023-04-19T07:37:11.297Z,73.69
2023-04-19T07:39:40.912Z,73.86
2023-04-19T07:42:08.627Z,73.55
2023-04-19T07:44:36.605Z,72.76
2023-04-19T07:47:05.185Z,72.72
2023-04-19T07:49:34.255Z,72.96
2023-04-19T07:52:02.623Z,73.43
2023-04-19T07:54:32.249Z,73.42
2023-04-19T07:57:01.214Z,73.36
2023-04-19T07:59:28.975Z,73.99
2023-04-19T08:01:56.733Z,74.44
2023-04-19T08:04:24.853Z,75.43
2023-04-19T08:06:53.680Z,75.21
2023-04-19T08:09:21.622Z,75.25
2023-04-19T08:11:49.375Z,76.10
2023-04-19T08:14:30.596Z,75.56
2023-04-19T08:19:35.675Z,76.00
2023-04-19T08:22:04.530Z,75.19
2023-04-19T08:24:32.375Z,74.27
2023-04-19T08:27:00.377Z,73.93
2023-04-19T08:29:29.382Z,73.42
2023-04-19T08:31:57.116Z,73.05
2023-04-19T08:34:24.778Z,73.91
2023-04-19T08:37:03.406Z,73.34
2023-04-19T08:39:33.867Z,73.14
2023-04-19T08:42:11.022Z,73.11
2023-04-19T08:45:13.598Z,72.66
2023-04-19T08:47:56.112Z,72.74
2023-04-19T08:50:33.552Z,73.28
2023-04-19T08:55:40.922Z,72.29
2023-04-19T08:58:26.315Z,71.20
2023-04-19T09:01:04.783Z,70.72
2023-04-19T09:03:40.776Z,72.80
2023-04-19T09:06:12.527Z,72.63
2023-04-19T09:08:41.148Z,71.34
2023-04-19T09:11:09.207Z,72.52
2023-04-19T09:13:38.688Z,72.39
2023-04-19T09:16:08.808Z,71.84
2023-04-19T09:19:02.579Z,70.90
2023-04-19T09:21:37.516Z,71.77
2023-04-19T09:24:05.999Z,70.38
2023-04-19T09:26:34.987Z,68.73
2023-04-19T09:29:04.743Z,68.94
2023-04-19T09:31:50.814Z,69.10
2023-04-19T09:34:21.639Z,69.72
2023-04-19T09:36:54.619Z,68.06
2023-04-19T09:39:32.782Z,66.79
2023-04-19T09:42:01.872Z,65.18
2023-04-19T09:47:01.921Z,67.89
2023-04-19T09:49:45.653Z,67.12
2023-04-19T09:52:16.426Z,68.16
2023-04-19T09:54:45.105Z,67.12
2023-04-19T09:57:13.472Z,66.91
2023-04-19T09:59:41.487Z,67.62
2023-04-19T10:02:14.088Z,67.49
2023-04-19T10:04:59.669Z,68.50
2023-04-19T10:07:32.558Z,67.28
2023-04-19T10:15:06.548Z,68.54
2023-04-19T10:17:36.059Z,67.73
2023-04-19T10:20:08.084Z,67.29
2023-04-19T10:22:37.654Z,67.56
2023-04-19T10:25:13.807Z,67.62
2023-04-19T10:27:48.591Z,67.57
2023-04-19T10:30:20.892Z,67.20
2023-04-19T10:32:56.194Z,68.49
2023-04-19T10:35:25.911Z,69.03
2023-04-19T10:38:08.816Z,68.90
2023-04-19T10:41:00.587Z,68.21
2023-04-19T10:43:29.687Z,68.73
2023-04-19T10:46:01.300Z,68.32
2023-04-19T10:48:39.197Z,67.39
2023-04-19T10:51:15.360Z,66.99
2023-04-19T10:53:51.646Z,66.85
2023-04-19T10:56:21.491Z,66.62
2023-04-19T10:59:22.877Z,66.50
2023-04-19T11:01:53.550Z,66.58
2023-04-19T11:04:27.206Z,64.92
2023-04-19T11:07:03.986Z,65.31
2023-04-19T11:09:34.699Z,66.32
2023-04-19T11:12:04.557Z,66.50
2023-04-19T11:14:36.604Z,65.74
2023-04-19T11:17:06.605Z,65.26
2023-04-19T11:19:35.750Z,65.45
2023-04-19T11:22:03.512Z,64.04
2023-04-19T11:24:31.352Z,64.21
2023-04-19T11:26:59.044Z,63.45
2023-04-19T11:29:26.825Z,63.31
2023-04-19T11:31:54.620Z,62.88
2023-04-19T11:34:24.710Z,62.89
2023-04-19T11:36:54.116Z,61.91
2023-04-19T11:39:22.401Z,59.78
2023-04-19T11:41:50.094Z,59.45
2023-04-19T11:44:20.511Z,58.10
2023-04-19T11:47:02.205Z,58.31
2023-04-19T11:49:31.302Z,56.36
2023-04-19T11:52:05.611Z,55.85
2023-04-19T11:54:34.303Z,55.02
2023-04-19T11:57:04.423Z,54.61
2023-04-19T11:59:33.251Z,53.35
2023-04-19T12:02:08.922Z,52.25
2023-04-19T12:04:37.552Z,52.90
2023-04-19T12:07:07.775Z,53.56
2023-04-19T12:09:38.682Z,54.34
2023-04-19T12:12:06.891Z,54.20
2023-04-19T12:14:35.344Z,52.73
2023-04-19T12:17:11.843Z,53.96
2023-04-19T12:19:44.620Z,52.98
2023-04-19T12:22:15.692Z,51.80
2023-04-19T12:24:43.776Z,51.68
2023-04-19T12:27:12.503Z,51.76
2023-04-19T12:29:40.685Z,50.20
2023-04-19T12:32:08.454Z,49.50
2023-04-19T12:34:36.233Z,48.19
2023-04-19T12:37:04.307Z,46.72
2023-04-19T12:39:33.524Z,46.13
2023-04-19T12:42:01.358Z,46.14
2023-04-19T12:44:28.986Z,45.09
2023-04-19T12:46:57.757Z,43.75
2023-04-19T12:49:25.653Z,43.20
2023-04-19T12:51:55.197Z,42.89
2023-04-19T12:54:24.380Z,42.76
2023-04-19T12:56:53.664Z,43.09
2023-04-19T12:59:22.057Z,42.08
2023-04-19T13:01:49.990Z,41.40
2023-04-19T13:04:18.088Z,43.64
2023-04-19T13:06:46.208Z,43.41
2023-04-19T13:09:14.866Z,42.41
2023-04-19T13:11:43.011Z,40.50
2023-04-19T13:14:12.060Z,39.58
2023-04-19T13:16:39.680Z,38.46
2023-04-19T13:19:07.603Z,39.35
2023-04-19T13:21:35.412Z,39.15
2023-04-19T13:24:03.217Z,38.44
2023-04-19T13:26:30.988Z,39.03
2023-04-19T13:28:58.694Z,38.63
2023-04-19T13:31:28.530Z,38.18
2023-04-19T13:33:56.464Z,39.07
2023-04-19T13:36:24.104Z,39.31
2023-04-19T13:38:52.032Z,39.20
2023-04-19T13:41:19.707Z,38.45
2023-04-19T13:43:47.598Z,37.28
2023-04-19T13:46:15.480Z,36.11
2023-04-19T13:48:44.568Z,37.09
2023-04-19T13:51:12.347Z,36.55
2023-04-19T13:53:40.777Z,37.71
2023-04-19T13:56:10.119Z,38.31
2023-04-19T13:58:38.011Z,37.72
2023-04-19T14:01:06.211Z,37.68
2023-04-19T14:03:34.054Z,37.89
2023-04-19T14:06:03.392Z,35.73
2023-04-19T14:08:31.284Z,34.82
2023-04-19T14:10:58.999Z,33.51
2023-04-19T14:13:26.970Z,34.69
2023-04-19T14:15:54.745Z,33.85
2023-04-19T14:18:22.386Z,35.37
2023-04-19T14:20:50.172Z,35.79
2023-04-19T14:23:19.188Z,33.95
2023-04-19T14:25:47.020Z,33.23
2023-04-19T14:28:14.651Z,31.57
2023-04-19T14:30:42.272Z,30.67
2023-04-19T14:33:10.219Z,30.83
2023-04-19T14:35:37.898Z,30.49
2023-04-19T14:38:05.671Z,30.51
2023-04-19T14:40:34.841Z,30.39
2023-04-19T14:43:02.642Z,28.65
2023-04-19T14:45:30.331Z,28.90
2023-04-19T14:47:58.076Z,28.90
2023-04-19T14:50:25.713Z,29.15
2023-04-19T14:52:54.783Z,28.35
2023-04-19T14:55:22.635Z,28.42
2023-04-19T14:57:51.903Z,28.30
2023-04-19T15:00:20.320Z,28.15
2023-04-19T15:02:48.027Z,28.60
2023-04-19T15:05:16.366Z,29.62
2023-04-19T15:07:44.226Z,29.18
2023-04-19T15:10:12.106Z,28.87
2023-04-19T15:12:39.992Z,28.50
2023-04-19T15:15:10.456Z,27.80
2023-04-19T15:17:38.517Z,26.82
2023-04-19T15:20:07.301Z,27.99
2023-04-19T15:22:35.167Z,28.00
2023-04-19T15:25:02.845Z,27.65
2023-04-19T15:27:31.355Z,27.06
2023-04-19T15:29:59.054Z,27.14
2023-04-19T15:32:30.818Z,27.66
2023-04-19T15:34:58.523Z,27.82
2023-04-19T15:37:27.390Z,28.39
2023-04-19T15:39:55.016Z,28.36
2023-04-19T15:42:22.787Z,28.59
2023-04-19T15:44:50.422Z,29.49
2023-04-19T15:47:18.026Z,29.35
2023-04-19T15:49:47.590Z,29.50
2023-04-19T15:52:15.336Z,28.87
2023-04-19T15:54:43.007Z,28.68
2023-04-19T15:57:10.722Z,27.72
2023-04-19T15:59:38.360Z,27.45
2023-04-19T16:02:06.403Z,26.61
2023-04-19T16:04:34.319Z,26.23
2023-04-19T16:07:03.560Z,26.67
2023-04-19T16:09:31.228Z,27.44
2023-04-19T16:11:58.842Z,28.19
2023-04-19T16:14:26.523Z,27.68
2023-04-19T16:16:54.855Z,28.46
2023-04-19T16:19:23.491Z,27.78
2023-04-19T16:21:51.226Z,28.99
2023-04-19T16:24:20.166Z,29.16
2023-04-19T16:26:47.993Z,28.84
2023-04-19T16:29:15.962Z,28.99
2023-04-19T16:31:44.234Z,29.90
2023-04-19T16:34:11.942Z,29.25
2023-04-19T16:36:40.533Z,29.77
2023-04-19T16:39:08.106Z,28.95
2023-04-19T16:41:37.295Z,29.09
2023-04-19T16:44:05.617Z,29.12
2023-04-19T16:46:33.448Z,28.96
2023-04-19T16:49:01.460Z,28.80
2023-04-19T16:51:29.214Z,29.20
2023-04-19T16:53:57.085Z,29.25
2023-04-19T16:56:25.308Z,29.00
2023-04-19T16:58:56.391Z,29.08
2023-04-19T17:01:24.561Z,29.45
2023-04-19T17:03:52.518Z,29.23
2023-04-19T17:06:20.261Z,29.88
2023-04-19T17:08:47.871Z,29.28
2023-04-19T17:11:15.502Z,29.82
2023-04-19T17:17:50.448Z,29.34
2023-04-19T17:20:18.320Z,29.70
2023-04-19T17:22:46.124Z,29.89
2023-04-19T17:25:13.946Z,30.44
2023-04-19T17:27:41.635Z,30.36
2023-04-19T17:30:10.204Z,30.41
2023-04-19T17:32:37.996Z,31.37
2023-04-19T17:35:08.223Z,31.31
2023-04-19T17:37:35.941Z,31.49
2023-04-19T17:40:03.985Z,32.43
2023-04-19T17:42:31.713Z,32.32
2023-04-19T17:45:00.317Z,32.58
2023-04-19T17:47:28.202Z,32.77
2023-04-19T17:50:08.679Z,32.91
2023-04-19T17:52:36.642Z,33.23
2023-04-19T17:55:05.590Z,33.51
2023-04-19T17:57:33.968Z,33.49
2023-04-19T18:00:05.998Z,33.56
2023-04-19T18:02:33.929Z,33.91
2023-04-19T18:05:02.805Z,34.51
2023-04-19T18:07:31.931Z,34.60
2023-04-19T18:09:59.684Z,34.89
2023-04-19T18:12:27.558Z,35.26
2023-04-19T18:14:55.346Z,35.10
2023-04-19T18:17:23.115Z,35.51
2023-04-19T18:19:51.492Z,35.51
2023-04-19T18:22:19.330Z,36.56
2023-04-19T18:24:51.146Z,36.39
2023-04-19T18:27:19.203Z,36.15
2023-04-19T18:29:47.217Z,35.95
2023-04-19T18:32:14.961Z,36.15
2023-04-19T18:34:42.895Z,36.23
2023-04-19T18:37:16.313Z,36.69
2023-04-19T18:39:44.081Z,36.86
2023-04-19T18:42:13.341Z,37.77
2023-04-19T18:44:52.240Z,37.59
2023-04-19T18:47:21.229Z,37.46
2023-04-19T18:49:59.737Z,37.66
2023-04-19T18:52:32.705Z,37.78
2023-04-19T18:55:00.637Z,38.54
2023-04-19T18:57:34.147Z,39.34
2023-04-19T19:00:05.433Z,40.27
2023-04-19T19:02:36.303Z,40.29
2023-04-19T19:07:36.878Z,41.21
2023-04-19T19:10:18.319Z,41.26
2023-04-19T19:12:50.156Z,40.83
2023-04-19T19:15:18.162Z,41.10
2023-04-19T19:17:49.906Z,40.39
2023-04-19T19:20:19.212Z,40.75
2023-04-19T19:22:47.268Z,41.25
2023-04-19T19:25:14.944Z,41.18
2023-04-19T19:27:58.251Z,41.43
2023-04-19T19:30:33.840Z,42.48
2023-04-19T19:33:02.702Z,43.38
2023-04-19T19:35:30.625Z,42.33
2023-04-19T19:37:58.394Z,42.13
2023-04-19T19:40:26.976Z,42.16
2023-04-19T19:42:58.716Z,42.29
2023-04-19T19:45:28.303Z,42.04
2023-04-19T19:47:59.087Z,41.66
2023-04-19T19:52:59.092Z,41.74
2023-04-19T19:55:27.004Z,42.20
2023-04-19T20:00:41.938Z,42.54
2023-04-19T20:03:13.781Z,43.32
2023-04-19T20:05:41.910Z,43.94
2023-04-19T20:08:12.358Z,43.75
2023-04-19T20:10:42.646Z,43.57
2023-04-19T20:13:11.882Z,43.51
2023-04-19T20:15:40.563Z,43.74
2023-04-19T20:18:08.314Z,42.98
2023-04-19T20:20:38.080Z,43.45
2023-04-19T20:23:06.099Z,43.68
2023-04-19T20:25:33.763Z,44.15
2023-04-19T20:28:01.975Z,44.34
2023-04-19T20:30:29.638Z,43.81
2023-04-19T20:32:57.460Z,43.14
2023-04-19T20:35:25.169Z,43.56
2023-04-19T20:37:54.575Z,43.62
2023-04-19T20:40:22.928Z,43.08
2023-04-19T20:42:51.478Z,43.14
2023-04-19T20:45:19.192Z,43.58
2023-04-19T20:47:47.073Z,43.12
2023-04-19T20:50:14.802Z,43.54
2023-04-19T20:52:42.507Z,44.31
2023-04-19T20:55:11.821Z,44.83
2023-04-19T20:57:39.555Z,44.38
2023-04-19T21:00:09.522Z,44.28
2023-04-19T21:02:37.828Z,43.64
2023-04-19T21:05:06.469Z,43.48
2023-04-19T21:07:34.154Z,44.08
2023-04-19T21:10:01.902Z,42.90
2023-04-19T21:12:30.904Z,44.02
2023-04-19T21:14:58.610Z,44.19
2023-04-19T21:17:26.496Z,44.02
2023-04-19T21:19:54.178Z,43.89
2023-04-19T21:22:21.981Z,44.08
2023-04-19T21:24:49.664Z,44.86
2023-04-19T21:27:17.343Z,44.22
2023-04-19T21:29:46.387Z,44.50
2023-04-19T21:32:14.023Z,45.13
2023-04-19T21:34:41.618Z,44.52
2023-04-19T21:37:09.293Z,44.73
2023-04-19T21:39:37.022Z,44.67
2023-04-19T21:42:04.765Z,44.73
2023-04-19T21:44:32.430Z,45.21
2023-04-19T21:47:01.583Z,45.07
2023-04-19T21:49:29.305Z,45.03
2023-04-19T21:51:57.281Z,45.53
2023-04-19T21:54:33.283Z,45.00
2023-04-19T21:57:01.946Z,45.85
2023-04-19T21:59:30.273Z,46.32
2023-04-19T22:01:58.223Z,45.99
2023-04-19T22:04:31.119Z,45.05
2023-04-19T22:07:02.645Z,45.84
2023-04-19T22:09:31.106Z,45.63
2023-04-19T22:11:59.991Z,45.07
2023-04-19T22:14:27.817Z,45.20
2023-04-19T22:16:56.554Z,44.84
2023-04-19T22:19:24.932Z,45.46
2023-04-19T22:21:55.020Z,45.70
2023-04-19T22:24:23.268Z,45.75
2023-04-19T22:26:52.956Z,45.69
2023-04-19T22:29:21.005Z,46.00
2023-04-19T22:31:48.851Z,45.88
2023-04-19T22:34:16.571Z,45.85
2023-04-19T22:36:44.242Z,46.27
2023-04-19T22:39:13.660Z,46.85
2023-04-19T22:41:41.285Z,47.74
2023-04-19T22:44:09.048Z,47.63
2023-04-19T22:46:37.398Z,48.31
2023-04-19T22:49:05.137Z,49.21
2023-04-19T22:51:34.051Z,49.00
2023-04-19T22:54:02.125Z,49.90
2023-04-19T22:56:31.312Z,50.36
2023-04-19T22:58:59.619Z,50.05
2023-04-19T23:01:27.328Z,50.45
2023-04-19T23:03:55.297Z,51.45
2023-04-19T23:06:23.507Z,51.42
2023-04-19T23:08:51.577Z,52.24
2023-04-19T23:11:19.279Z,52.38
2023-04-19T23:13:48.772Z,53.69
2023-04-19T23:16:16.877Z,53.83
2023-04-19T23:18:45.146Z,54.47
2023-04-19T23:21:13.013Z,55.08
2023-04-19T23:23:40.689Z,55.49
2023-04-19T23:26:08.377Z,55.28
2023-04-19T23:28:36.307Z,55.77
2023-04-19T23:31:05.730Z,56.61
2023-04-19T23:33:33.392Z,57.40
2023-04-19T23:36:01.124Z,57.52
2023-04-19T23:38:28.727Z,57.93
2023-04-19T23:40:56.488Z,58.90
2023-04-19T23:43:24.258Z,59.30
2023-04-19T23:45:52.028Z,59.76
2023-04-19T23:48:21.095Z,60.64
2023-04-19T23:50:48.792Z,59.30
2023-04-19T23:53:16.469Z,60.00
2023-04-19T23:55:44.231Z,61.00
2023-04-19T23:58:11.911Z,61.65
